Time;durP1;ratioP1;P1;durP2;ratioP2;P2;SDS_P1;SDS_P2;PMS_P1;PMS_P2;Temp;Humidity;BMP_temperature;BMP_pressure;BME280_temperature;BME280_humidity;BME280_pressure;Samples;Min_cycle;Max_cycle;Signal;HPM_P1;HPM_P2
2024/02/16 00:01:58;;;;;;;66.70;40.00;;;;;;;5.60;89.82;99062.08;435294;1254;111178;-40
2024/02/16 00:12:06;;;;;;;77.40;44.40;;;;;;;5.49;90.18;99060.56;435278;1256;107302;-40
2024/02/16 00:32:20;;;;;;;72.00;44.30;;;;;;;5.34;91.40;99041.04;435394;1251;108743;-39
2024/02/16 00:42:30;;;;;;;75.50;41.90;;;;;;;5.27;91.72;99037.61;435228;1251;99485;-40
2024/02/16 00:52:39;;;;;;;66.70;40.90;;;;;;;5.22;91.81;99038.33;435400;1253;111226;-40
2024/02/16 01:02:48;;;;;;;72.30;46.00;;;;;;;5.15;92.00;99041.75;435540;1253;107793;-39
2024/02/16 01:12:56;;;;;;;78.40;45.70;;;;;;;5.08;92.21;99033.89;435287;1253;99346;-40
2024/02/16 01:33:10;;;;;;;67.80;40.90;;;;;;;4.97;93.04;99031.09;435466;1251;99194;-40
2024/02/16 01:43:20;;;;;;;70.20;40.80;;;;;;;4.97;93.06;99034.27;435511;1251;111080;-39
2024/02/16 01:53:27;;;;;;;68.80;43.10;;;;;;;4.98;93.22;99027.95;435407;1257;108762;-39
2024/02/16 02:23:48;;;;;;;72.40;44.40;;;;;;;4.91;93.71;99001.71;435284;1251;99287;-40
2024/02/16 02:33:55;;;;;;;71.00;43.00;;;;;;;4.85;93.73;99000.36;435318;1250;112156;-39
2024/02/16 02:44:03;;;;;;;75.10;42.40;;;;;;;4.79;94.07;98995.17;435370;1254;107258;-40
2024/02/16 02:54:09;;;;;;;65.10;40.20;;;;;;;4.83;94.31;98996.92;435179;1254;99336;-38
2024/02/16 03:04:17;;;;;;;71.70;40.90;;;;;;;4.89;94.40;98993.87;435200;1250;108604;-40
2024/02/16 03:14:23;;;;;;;68.70;38.70;;;;;;;4.93;94.44;99000.89;435281;1250;99203;-40
2024/02/16 03:24:30;;;;;;;57.20;38.20;;;;;;;4.94;94.31;98998.36;435246;1256;111451;-40
2024/02/16 03:34:38;;;;;;;57.80;33.50;;;;;;;4.92;94.44;98997.70;435200;1254;108002;-40
2024/02/16 03:44:46;;;;;;;55.10;33.00;;;;;;;4.91;94.62;98994.90;435249;1255;99227;-39
2024/02/16 03:54:53;;;;;;;54.00;34.50;;;;;;;4.95;94.94;98997.80;435469;1254;107734;-40
2024/02/16 04:04:59;;;;;;;61.50;34.00;;;;;;;4.98;95.05;98996.70;435357;1253;97985;-39
2024/02/16 04:15:07;;;;;;;62.50;35.70;;;;;;;5.01;95.35;98993.34;434859;1250;636159;-39
2024/02/16 04:25:14;;;;;;;56.80;33.00;;;;;;;5.03;95.70;98985.13;435403;1250;106993;-39
2024/02/16 04:35:21;;;;;;;61.40;33.00;;;;;;;5.04;95.86;98986.07;435395;1253;99218;-39
2024/02/16 04:45:30;;;;;;;50.10;33.50;;;;;;;5.03;95.65;98985.41;435498;1250;107819;-40
2024/02/16 04:55:37;;;;;;;57.50;32.20;;;;;;;5.02;95.64;98985.04;435341;1253;99218;-39
2024/02/16 05:15:54;;;;;;;59.00;36.90;;;;;;;4.85;95.86;98991.05;435324;1253;107237;-40
2024/02/16 05:26:01;;;;;;;76.80;38.00;;;;;;;4.74;95.87;98998.02;435498;1253;99259;-39
2024/02/16 05:36:08;;;;;;;66.00;36.70;;;;;;;4.65;95.82;98993.63;435360;1251;108273;-38
2024/02/16 05:46:13;;;;;;;62.20;33.90;;;;;;;4.57;95.79;98991.16;435561;1253;99276;-39
2024/02/16 06:06:27;;;;;;;61.60;34.60;;;;;;;4.50;95.89;99003.97;435381;1250;108415;-40
2024/02/16 06:16:35;;;;;;;74.20;39.10;;;;;;;4.53;95.96;99014.80;435383;1253;99855;-40
2024/02/16 06:26:43;;;;;;;64.20;37.10;;;;;;;4.60;96.21;99022.14;435301;1253;107170;-40
2024/02/16 06:36:50;;;;;;;55.60;32.60;;;;;;;4.82;96.32;99030.44;435326;1253;98482;-39
2024/02/16 06:46:57;;;;;;;71.90;39.20;;;;;;;5.02;96.30;99039.36;435239;1253;110904;-40
2024/02/16 06:57:05;;;;;;;56.50;32.90;;;;;;;5.11;96.49;99045.05;435295;1253;107669;-41
2024/02/16 07:07:15;;;;;;;51.50;32.50;;;;;;;5.49;96.70;99044.85;435475;1253;99221;-40
2024/02/16 07:17:23;;;;;;;69.10;31.20;;;;;;;5.94;96.71;99041.08;435468;1249;107277;-39
2024/02/16 07:27:30;;;;;;;63.90;38.90;;;;;;;6.40;96.88;99036.90;435423;1263;97983;-41
2024/02/16 07:47:43;;;;;;;59.10;29.00;;;;;;;8.16;96.15;99009.39;435288;1253;108398;-40
2024/02/16 07:57:50;;;;;;;57.80;32.30;;;;;;;9.25;95.36;99003.52;435487;1253;98814;-39
2024/02/16 08:07:57;;;;;;;50.50;30.30;;;;;;;10.31;94.68;99006.33;435424;1254;108333;-42
2024/02/16 08:18:05;;;;;;;43.90;24.80;;;;;;;10.84;92.25;99002.61;435517;1249;99228;-40
2024/02/16 08:28:12;;;;;;;35.20;19.30;;;;;;;11.17;91.93;98997.95;435307;1254;111570;-41
2024/02/16 08:38:20;;;;;;;28.20;15.30;;;;;;;11.48;88.92;98997.64;435455;1253;108859;-41
2024/02/16 08:48:26;;;;;;;22.80;11.90;;;;;;;11.25;86.49;98995.20;435376;1251;99215;-40
2024/02/16 08:58:34;;;;;;;19.60;10.20;;;;;;;11.23;85.08;98998.05;435386;1254;108914;-41
2024/02/16 09:08:41;;;;;;;19.80;10.80;;;;;;;11.43;84.80;98998.27;435274;1253;99386;-40
2024/02/16 09:28:55;;;;;;;14.10;8.30;;;;;;;11.95;83.32;99002.95;435485;1253;108103;-40
2024/02/16 09:39:02;;;;;;;12.00;8.00;;;;;;;12.09;82.54;99002.96;435452;1251;98045;-39
2024/02/16 09:49:09;;;;;;;13.90;7.70;;;;;;;12.26;81.14;98999.67;435360;1254;108509;-39
2024/02/16 09:59:17;;;;;;;11.10;5.80;;;;;;;12.42;78.55;98998.89;435403;1263;98814;-40
2024/02/16 10:19:39;;;;;;;11.50;7.30;;;;;;;12.94;77.35;98993.89;435422;1253;107875;-39
2024/02/16 10:29:55;;;;;;;11.60;6.30;;;;;;;13.22;76.68;98982.08;435440;1253;99244;-39
2024/02/16 10:40:02;;;;;;;6.60;4.70;;;;;;;13.30;74.37;98981.87;435449;1253;108047;-40
2024/02/16 11:00:20;;;;;;;14.30;8.10;;;;;;;13.41;71.39;98975.14;435352;1254;111205;-40
2024/02/16 11:10:28;;;;;;;15.80;8.20;;;;;;;13.58;71.11;98968.63;435482;1254;107774;-41
2024/02/16 11:30:45;;;;;;;14.40;7.90;;;;;;;13.77;70.47;98948.02;435401;1263;109827;-40
2024/02/16 11:40:57;;;;;;;17.70;8.50;;;;;;;13.83;69.65;98938.63;435373;1253;99228;-41
2024/02/16 11:51:03;;;;;;;13.90;8.50;;;;;;;14.02;69.52;98926.42;435253;1263;111446;-41
2024/02/16 12:01:12;;;;;;;15.40;7.50;;;;;;;14.16;68.23;98923.83;435422;1254;106953;-40
2024/02/16 12:11:20;;;;;;;10.10;7.90;;;;;;;14.13;67.65;98929.98;435445;1251;98865;-40
2024/02/16 12:21:27;;;;;;;9.50;6.10;;;;;;;14.13;67.36;98925.13;435239;1253;107560;-40
2024/02/16 12:31:37;;;;;;;10.10;5.80;;;;;;;14.17;66.24;98918.64;435368;1251;99231;-40
2024/02/16 12:41:44;;;;;;;11.70;5.20;;;;;;;14.09;65.14;98909.71;435455;1254;111451;-40
2024/02/16 12:51:52;;;;;;;8.40;5.10;;;;;;;14.03;65.22;98900.85;435291;1254;110694;-40
2024/02/16 13:02:02;;;;;;;6.40;4.50;;;;;;;13.95;65.17;98890.80;435416;1251;99237;-41
2024/02/16 13:12:10;;;;;;;6.50;4.80;;;;;;;13.97;64.80;98885.07;435355;1254;108196;-40
2024/02/16 13:22:18;;;;;;;7.00;4.00;;;;;;;13.97;64.62;98879.60;435503;1250;97943;-40
2024/02/16 13:32:25;;;;;;;11.60;5.20;;;;;;;13.93;64.96;98872.94;435292;1253;112292;-40
2024/02/16 13:42:31;;;;;;;11.70;6.10;;;;;;;13.91;64.77;98867.29;435205;1251;107872;-40
2024/02/16 13:52:39;;;;;;;14.00;6.60;;;;;;;13.97;63.49;98864.40;435463;1251;99263;-40
2024/02/16 14:02:46;;;;;;;9.80;4.90;;;;;;;13.97;62.83;98872.77;436617;1254;108672;-39
2024/02/16 14:12:54;;;;;;;6.50;4.60;;;;;;;13.89;63.03;98869.86;435264;1253;99287;-39
2024/02/16 14:23:02;;;;;;;11.00;5.30;;;;;;;13.81;61.70;98865.45;435622;1250;110948;-40
2024/02/16 14:33:10;;;;;;;7.70;4.10;;;;;;;13.76;62.11;98856.05;435484;1256;107306;-40
2024/02/16 14:43:17;;;;;;;10.10;5.70;;;;;;;13.58;62.62;98859.23;435689;1253;98024;-40
2024/02/16 14:53:25;;;;;;;12.40;4.50;;;;;;;13.45;62.81;98851.55;435518;1254;108768;-40
2024/02/16 15:03:32;;;;;;;11.00;7.10;;;;;;;13.32;63.37;98851.50;435467;1251;99288;-42
2024/02/16 15:13:42;;;;;;;15.60;6.90;;;;;;;13.18;64.05;98848.77;435484;1251;111859;-41
2024/02/16 15:23:49;;;;;;;15.00;8.00;;;;;;;13.08;64.02;98854.96;435481;1251;109410;-40
2024/02/16 15:33:56;;;;;;;12.90;7.90;;;;;;;12.88;64.36;98844.89;435565;1251;99228;-41
2024/02/16 15:44:04;;;;;;;17.20;8.70;;;;;;;12.62;64.45;98831.18;435722;1254;108334;-40
2024/02/16 15:54:11;;;;;;;17.10;9.20;;;;;;;12.40;64.80;98832.71;435516;1253;98581;-40
2024/02/16 16:04:20;;;;;;;20.90;9.90;;;;;;;12.12;65.09;98829.62;435517;1253;110684;-40
2024/02/16 16:14:27;;;;;;;28.00;12.90;;;;;;;11.79;65.48;98834.96;434963;1250;718118;-41
2024/02/16 16:24:34;;;;;;;25.60;13.40;;;;;;;11.51;66.04;98838.30;435673;1251;99327;-39
2024/02/16 16:34:42;;;;;;;33.00;17.00;;;;;;;11.27;66.54;98841.52;435596;1254;107916;-40
2024/02/16 16:44:48;;;;;;;42.10;21.70;;;;;;;11.00;66.97;98851.59;435483;1250;99227;-39
2024/02/16 16:54:55;;;;;;;58.10;28.10;;;;;;;10.71;67.42;98858.19;435585;1254;110747;-40
2024/02/16 17:05:03;;;;;;;39.30;21.90;;;;;;;10.48;67.62;98856.32;435406;1251;108554;-41
2024/02/16 17:25:17;;;;;;;45.00;25.00;;;;;;;10.25;68.81;98860.89;435613;1253;109011;-41
2024/02/16 17:35:23;;;;;;;39.10;23.20;;;;;;;10.02;69.10;98870.64;435887;1251;99221;-39
2024/02/16 17:55:37;;;;;;;48.60;28.20;;;;;;;9.65;69.96;98887.59;435514;1253;108004;-40
2024/02/16 18:05:43;;;;;;;46.30;22.80;;;;;;;9.62;70.24;98888.91;435598;1253;99327;-39
2024/02/16 18:15:49;;;;;;;48.60;25.80;;;;;;;9.57;70.60;98888.11;435450;1250;108519;-39
2024/02/16 18:25:53;;;;;;;60.00;29.40;;;;;;;9.50;70.88;98889.67;435650;1251;99317;-41
2024/02/16 18:46:05;;;;;;;45.40;23.30;;;;;;;9.20;71.47;98886.02;435658;1253;107891;-39
2024/02/16 18:56:12;;;;;;;32.40;17.90;;;;;;;9.10;71.62;98884.91;435608;1253;97992;-41
2024/02/16 19:06:19;;;;;;;31.20;15.40;;;;;;;9.12;71.91;98887.48;435366;1250;108240;-41
2024/02/16 19:16:27;;;;;;;32.90;17.60;;;;;;;9.17;72.37;98884.33;435691;1254;98836;-41
2024/02/16 19:26:36;;;;;;;29.90;15.60;;;;;;;9.13;72.56;98884.48;435511;1253;111968;-42
2024/02/16 19:36:42;;;;;;;35.30;15.60;;;;;;;9.11;72.82;98882.17;435484;1253;107648;-41
2024/02/16 19:46:49;;;;;;;29.80;14.00;;;;;;;9.12;72.87;98882.05;435521;1253;99346;-41
2024/02/16 19:56:56;;;;;;;25.10;13.00;;;;;;;9.14;72.97;98882.80;435523;1249;108488;-39
2024/02/16 20:07:03;;;;;;;25.40;15.40;;;;;;;9.10;73.22;98882.23;435525;1250;99249;-41
2024/02/16 20:17:13;;;;;;;20.90;11.50;;;;;;;9.04;73.46;98886.27;435756;1250;113491;-40
2024/02/16 20:27:20;;;;;;;20.00;10.40;;;;;;;8.96;73.67;98878.82;435514;1254;107822;-40
2024/02/16 20:37:27;;;;;;;16.20;10.70;;;;;;;9.00;73.75;98884.25;435539;1253;99307;-40
2024/02/16 20:47:35;;;;;;;15.80;10.00;;;;;;;8.96;74.14;98882.31;435547;1253;108411;-40
2024/02/16 20:57:42;;;;;;;14.80;9.50;;;;;;;8.93;74.19;98881.93;435599;1250;99224;-41
2024/02/16 21:07:50;;;;;;;15.70;9.00;;;;;;;8.90;74.36;98888.04;435647;1253;111621;-42
2024/02/16 21:28:04;;;;;;;16.50;10.00;;;;;;;8.99;74.63;98882.88;435511;1253;98071;-40
2024/02/16 21:38:12;;;;;;;22.30;12.10;;;;;;;8.96;74.69;98878.50;435796;1251;108305;-41
2024/02/16 21:48:19;;;;;;;21.60;10.20;;;;;;;9.02;74.58;98872.88;435566;1253;99227;-40
2024/02/16 21:58:41;;;;;;;;;;;;;;;9.07;74.73;98864.52;435933;1253;112325;-41
2024/02/16 22:08:47;;;;;;;22.60;11.40;;;;;;;9.01;74.79;98869.36;435589;1253;108061;-42
2024/02/16 22:18:54;;;;;;;17.00;9.90;;;;;;;9.02;74.76;98864.31;435497;1253;97963;-40
2024/02/16 22:29:01;;;;;;;16.80;11.20;;;;;;;9.08;74.73;98871.73;435473;1253;107428;-39
2024/02/16 22:39:09;;;;;;;17.40;11.00;;;;;;;9.03;74.84;98875.39;435558;1251;98005;-41
2024/02/16 22:49:16;;;;;;;16.70;10.80;;;;;;;9.00;74.75;98879.91;435546;1250;110636;-42
2024/02/16 22:59:23;;;;;;;18.00;10.70;;;;;;;9.02;74.53;98882.65;435643;1251;107213;-40
2024/02/16 23:19:36;;;;;;;22.30;12.20;;;;;;;8.96;74.68;98888.65;435433;1253;109890;-40
2024/02/16 23:29:44;;;;;;;16.00;10.50;;;;;;;8.91;74.52;98893.27;435698;1252;99861;-41
2024/02/16 23:39:50;;;;;;;20.00;12.40;;;;;;;8.98;74.40;98897.97;435549;1253;111850;-40
2024/02/16 23:49:57;;;;;;;24.00;12.40;;;;;;;8.98;74.52;98904.66;435404;1253;109370;-39
